createdAt,value
2024-02-01T00:00:32.696Z,991.85
2024-02-01T00:01:32.658Z,991.89
2024-02-01T00:02:32.789Z,991.87
2024-02-01T00:03:32.638Z,991.87
2024-02-01T00:04:32.638Z,991.87
2024-02-01T00:05:32.717Z,991.84
2024-02-01T00:06:32.776Z,991.83
2024-02-01T00:07:32.634Z,991.81
2024-02-01T00:08:32.662Z,991.86
2024-02-01T00:09:32.642Z,991.86
2024-02-01T00:10:32.660Z,991.82
2024-02-01T00:11:32.673Z,991.78
2024-02-01T00:12:32.657Z,991.81
2024-02-01T00:13:32.668Z,991.86
2024-02-01T00:14:32.758Z,991.84
2024-02-01T00:15:32.662Z,991.81
2024-02-01T00:16:32.610Z,991.78
2024-02-01T00:17:32.725Z,991.8
2024-02-01T00:18:32.714Z,991.79
2024-02-01T00:19:32.724Z,991.78
2024-02-01T00:20:32.680Z,991.79
2024-02-01T00:21:32.628Z,991.74
2024-02-01T00:22:34.497Z,991.77
2024-02-01T00:23:32.668Z,991.78
2024-02-01T00:24:32.616Z,991.76
2024-02-01T00:25:32.624Z,991.75
2024-02-01T00:26:32.663Z,991.72
2024-02-01T00:27:32.668Z,991.68
2024-02-01T00:28:32.634Z,991.65
2024-02-01T00:29:32.651Z,991.68
2024-02-01T00:30:32.668Z,991.69
2024-02-01T00:31:32.710Z,991.67
2024-02-01T00:32:32.720Z,991.64
2024-02-01T00:33:33.023Z,991.62
2024-02-01T00:34:32.679Z,991.66
2024-02-01T00:35:32.683Z,991.65
2024-02-01T00:36:32.665Z,991.66
2024-02-01T00:37:32.672Z,991.64
2024-02-01T00:38:32.672Z,991.63
2024-02-01T00:39:32.646Z,991.62
2024-02-01T00:40:32.655Z,991.59
2024-02-01T00:41:32.722Z,991.6
2024-02-01T00:42:32.659Z,991.6
2024-02-01T00:43:32.647Z,991.55
2024-02-01T00:44:32.665Z,991.58
2024-02-01T00:45:32.677Z,991.52
2024-02-01T00:46:32.657Z,991.57
2024-02-01T00:47:32.808Z,991.59
2024-02-01T00:48:32.911Z,991.59
2024-02-01T00:50:32.650Z,991.58
2024-02-01T00:51:32.649Z,991.61
2024-02-01T00:52:32.650Z,991.54
2024-02-01T00:53:32.728Z,991.55
2024-02-01T00:54:32.649Z,991.52
2024-02-01T00:55:32.637Z,991.51
2024-02-01T00:56:32.639Z,991.48
2024-02-01T00:57:32.649Z,991.45
2024-02-01T00:58:32.661Z,991.47
2024-02-01T00:59:32.729Z,991.43
2024-02-01T01:00:32.794Z,991.44
2024-02-01T01:01:32.767Z,991.46
2024-02-01T01:02:32.671Z,991.48
2024-02-01T01:03:32.648Z,991.42
2024-02-01T01:04:32.684Z,991.39
2024-02-01T01:05:32.689Z,991.38
2024-02-01T01:06:32.649Z,991.33
2024-02-01T01:07:32.651Z,991.37
2024-02-01T01:08:32.679Z,991.35
2024-02-01T01:09:32.695Z,991.34
2024-02-01T01:10:32.653Z,991.3
2024-02-01T01:11:32.649Z,991.23
2024-02-01T01:12:32.617Z,991.24
2024-02-01T01:13:32.692Z,991.19
2024-02-01T01:14:32.648Z,991.23
2024-02-01T01:15:32.650Z,991.22
2024-02-01T01:16:32.592Z,991.2
2024-02-01T01:17:32.693Z,991.16
2024-02-01T01:18:32.757Z,991.13
2024-02-01T01:19:32.680Z,991.11
2024-02-01T01:20:32.634Z,991.1
2024-02-01T01:21:32.598Z,991.05
2024-02-01T01:22:32.648Z,991.01
2024-02-01T01:23:32.685Z,991.02
2024-02-01T01:24:32.655Z,990.92
2024-02-01T01:25:32.629Z,990.91
2024-02-01T01:26:32.666Z,990.91
2024-02-01T01:27:32.644Z,990.91
2024-02-01T01:28:32.643Z,990.88
2024-02-01T01:29:32.694Z,990.92
2024-02-01T01:30:32.651Z,990.9
2024-02-01T01:31:32.657Z,990.82
2024-02-01T01:32:32.696Z,990.77
2024-02-01T01:33:32.800Z,990.75
2024-02-01T01:34:32.685Z,990.73
2024-02-01T01:35:32.664Z,990.75
2024-02-01T01:36:32.674Z,990.73
2024-02-01T01:37:32.674Z,990.68
2024-02-01T01:38:32.677Z,990.69
2024-02-01T01:39:32.660Z,990.66
2024-02-01T01:40:32.652Z,990.64
2024-02-01T01:41:32.661Z,990.58
2024-02-01T01:42:32.672Z,990.55
2024-02-01T01:43:32.645Z,990.53
2024-02-01T01:44:32.700Z,990.55
2024-02-01T01:45:32.664Z,990.55
2024-02-01T01:46:32.642Z,990.51
2024-02-01T01:47:32.754Z,990.53
2024-02-01T01:48:32.729Z,990.55
2024-02-01T01:49:32.686Z,990.59
2024-02-01T01:50:32.682Z,990.55
2024-02-01T01:51:32.638Z,990.55
2024-02-01T01:52:32.660Z,990.52
2024-02-01T01:53:32.697Z,990.52
2024-02-01T01:54:32.649Z,990.44
2024-02-01T01:55:32.614Z,990.41
2024-02-01T01:56:32.649Z,990.41
2024-02-01T01:57:32.613Z,990.37
2024-02-01T01:58:32.650Z,990.39
2024-02-01T01:59:32.659Z,990.4
2024-02-01T02:00:32.643Z,990.39
2024-02-01T02:01:32.649Z,990.37
2024-02-01T02:02:32.675Z,990.37
2024-02-01T02:03:32.723Z,990.37
2024-02-01T02:04:32.659Z,990.36
2024-02-01T02:05:32.740Z,990.38
2024-02-01T02:06:32.697Z,990.32
2024-02-01T02:07:32.657Z,990.31
2024-02-01T02:08:32.648Z,990.28
2024-02-01T02:09:32.665Z,990.31
2024-02-01T02:10:33.752Z,990.35
2024-02-01T02:11:32.628Z,990.4
2024-02-01T02:12:32.642Z,990.4
2024-02-01T02:13:32.649Z,990.4
2024-02-01T02:14:32.722Z,990.35
2024-02-01T02:15:32.624Z,990.25
2024-02-01T02:16:32.715Z,990.26
2024-02-01T02:17:32.718Z,990.23
2024-02-01T02:18:32.756Z,990.18
2024-02-01T02:19:32.671Z,990.2
2024-02-01T02:20:32.656Z,990.21
2024-02-01T02:21:32.661Z,990.14
2024-02-01T02:22:32.650Z,990.16
2024-02-01T02:23:32.662Z,990.11
2024-02-01T02:24:32.654Z,990.07
2024-02-01T02:25:32.631Z,990.05
2024-02-01T02:26:32.669Z,990.08
2024-02-01T02:27:32.646Z,990.11
2024-02-01T02:28:32.629Z,990.16
2024-02-01T02:29:32.687Z,990.18
2024-02-01T02:30:32.652Z,990.15
2024-02-01T02:31:32.643Z,990.08
2024-02-01T02:32:32.704Z,990.11
2024-02-01T02:33:32.852Z,990.1
2024-02-01T02:34:32.703Z,990.08
2024-02-01T02:35:32.794Z,990.06
2024-02-01T02:36:32.653Z,990.05
2024-02-01T02:37:32.654Z,990.06
2024-02-01T02:38:32.665Z,990.04
2024-02-01T02:39:32.577Z,990.01
2024-02-01T02:40:32.662Z,990.03
2024-02-01T02:41:33.421Z,989.97
2024-02-01T02:42:32.638Z,989.95
2024-02-01T02:43:32.660Z,989.99
2024-02-01T02:44:32.674Z,989.99
2024-02-01T02:45:32.663Z,989.99
2024-02-01T02:46:32.631Z,989.96
2024-02-01T02:47:32.774Z,989.95
2024-02-01T02:48:32.709Z,989.94
2024-02-01T02:49:32.703Z,989.89
2024-02-01T02:50:32.638Z,989.9
2024-02-01T02:51:32.647Z,989.93
2024-02-01T02:52:32.635Z,989.89
2024-02-01T02:53:32.697Z,989.86
2024-02-01T02:54:32.616Z,989.86
2024-02-01T02:55:32.648Z,989.89
2024-02-01T02:56:32.661Z,989.87
2024-02-01T02:57:32.648Z,989.82
2024-02-01T02:58:32.628Z,989.83
2024-02-01T02:59:32.706Z,989.79
2024-02-01T03:00:32.659Z,989.81
2024-02-01T03:01:32.719Z,989.8
2024-02-01T03:02:32.651Z,989.8
2024-02-01T03:03:32.651Z,989.74
2024-02-01T03:04:32.657Z,989.73
2024-02-01T03:05:32.636Z,989.74
2024-02-01T03:06:32.714Z,989.73
2024-02-01T03:07:32.662Z,989.72
2024-02-01T03:08:32.697Z,989.75
2024-02-01T03:09:34.562Z,989.75
2024-02-01T03:10:32.650Z,989.72
2024-02-01T03:11:32.643Z,989.66
2024-02-01T03:12:32.661Z,989.66
2024-02-01T03:13:32.653Z,989.67
2024-02-01T03:14:32.624Z,989.68
2024-02-01T03:15:32.658Z,989.65
2024-02-01T03:16:32.673Z,989.62
2024-02-01T03:17:32.745Z,989.59
2024-02-01T03:18:32.746Z,989.61
2024-02-01T03:19:32.771Z,989.53
2024-02-01T03:20:32.728Z,989.51
2024-02-01T03:21:32.640Z,989.51
2024-02-01T03:22:32.656Z,989.48
2024-02-01T03:23:32.711Z,989.5
2024-02-01T03:24:32.623Z,989.5
2024-02-01T03:25:32.760Z,989.55
2024-02-01T03:26:32.645Z,989.53
2024-02-01T03:27:32.638Z,989.51
2024-02-01T03:28:32.641Z,989.52
2024-02-01T03:29:32.657Z,989.5
2024-02-01T03:30:32.650Z,989.47
2024-02-01T03:31:32.639Z,989.52
2024-02-01T03:32:32.682Z,989.5
2024-02-01T03:33:32.760Z,989.5
2024-02-01T03:34:32.676Z,989.49
2024-02-01T03:35:32.675Z,989.53
2024-02-01T03:36:32.615Z,989.5
2024-02-01T03:37:32.587Z,989.48
2024-02-01T03:38:32.685Z,989.54
2024-02-01T03:39:32.640Z,989.52
2024-02-01T03:40:32.711Z,989.51
2024-02-01T03:41:32.783Z,989.48
2024-02-01T03:42:32.630Z,989.44
2024-02-01T03:43:32.663Z,989.42
2024-02-01T03:44:32.665Z,989.44
2024-02-01T03:45:32.656Z,989.43
2024-02-01T03:46:32.647Z,989.41
2024-02-01T03:47:32.664Z,989.39
2024-02-01T03:48:32.727Z,989.35
2024-02-01T03:49:32.765Z,989.33
2024-02-01T03:50:32.652Z,989.32
2024-02-01T03:51:32.660Z,989.29
2024-02-01T03:52:32.615Z,989.3
2024-02-01T03:53:32.740Z,989.26
2024-02-01T03:54:32.651Z,989.22
2024-02-01T03:55:32.637Z,989.2
2024-02-01T03:56:32.667Z,989.17
2024-02-01T03:57:32.625Z,989.15
2024-02-01T03:58:32.638Z,989.11
2024-02-01T03:59:32.746Z,989.11
2024-02-01T04:00:32.697Z,989.16
2024-02-01T04:01:32.658Z,989.12
2024-02-01T04:02:32.655Z,989.08
2024-02-01T04:03:32.650Z,989.06
2024-02-01T04:04:32.782Z,989.05
2024-02-01T04:05:32.719Z,989.04
2024-02-01T04:06:32.757Z,989.07
2024-02-01T04:07:32.625Z,989.08
2024-02-01T04:08:32.669Z,989.16
2024-02-01T04:09:32.670Z,989.15
2024-02-01T04:10:32.630Z,989.09
2024-02-01T04:11:32.791Z,989.04
2024-02-01T04:12:32.615Z,989.08
2024-02-01T04:13:32.647Z,989.06
2024-02-01T04:14:32.672Z,989.05
2024-02-01T04:15:32.650Z,989.07
2024-02-01T04:16:32.658Z,989.01
2024-02-01T04:17:32.779Z,989.02
2024-02-01T04:18:32.751Z,989.06
2024-02-01T04:19:32.720Z,989.07
2024-02-01T04:20:32.718Z,989.13
2024-02-01T04:21:32.626Z,989.18
2024-02-01T04:22:32.661Z,989.12
2024-02-01T04:23:32.661Z,989.15
2024-02-01T04:24:32.660Z,989.13
2024-02-01T04:25:32.667Z,989.17
2024-02-01T04:26:32.644Z,989.16
2024-02-01T04:27:32.640Z,989.25
2024-02-01T04:28:32.639Z,989.26
2024-02-01T04:29:32.701Z,989.25
2024-02-01T04:30:32.631Z,989.29
2024-02-01T04:31:32.620Z,989.29
2024-02-01T04:32:32.800Z,989.31
2024-02-01T04:33:32.746Z,989.29
2024-02-01T04:34:32.657Z,989.26
2024-02-01T04:35:32.689Z,989.22
2024-02-01T04:36:32.641Z,989.2
2024-02-01T04:37:32.632Z,989.21
2024-02-01T04:38:32.678Z,989.17
2024-02-01T04:39:32.653Z,989.16
2024-02-01T04:40:32.659Z,989.12
2024-02-01T04:41:32.680Z,989.07
2024-02-01T04:42:32.672Z,989.09
2024-02-01T04:43:32.660Z,989.11
2024-02-01T04:44:32.668Z,989.15
2024-02-01T04:45:32.664Z,989.14
2024-02-01T04:46:32.622Z,989.18
2024-02-01T04:47:32.680Z,989.18
2024-02-01T04:48:32.757Z,989.19
2024-02-01T04:49:32.820Z,989.21
2024-02-01T04:50:32.679Z,989.28
2024-02-01T04:51:32.640Z,989.28
2024-02-01T04:52:32.649Z,989.26
2024-02-01T04:53:32.723Z,989.28
2024-02-01T04:54:32.650Z,989.24
2024-02-01T04:55:35.316Z,989.26
2024-02-01T04:56:32.627Z,989.21
2024-02-01T04:57:32.649Z,989.23
2024-02-01T04:58:32.639Z,989.18
2024-02-01T04:59:32.648Z,989.17
2024-02-01T05:00:32.668Z,989.17
2024-02-01T05:01:32.795Z,989.19
2024-02-01T05:02:32.695Z,989.23
2024-02-01T05:03:32.734Z,989.26
2024-02-01T05:04:32.689Z,989.28
2024-02-01T05:05:32.811Z,989.26
2024-02-01T05:06:32.840Z,989.28
2024-02-01T05:07:32.604Z,989.33
2024-02-01T05:08:32.722Z,989.35
2024-02-01T05:09:32.665Z,989.41
2024-02-01T05:10:32.658Z,989.36
2024-02-01T05:11:32.724Z,989.41
2024-02-01T05:12:32.647Z,989.44
2024-02-01T05:13:32.651Z,989.42
2024-02-01T05:14:32.752Z,989.44
2024-02-01T05:15:32.655Z,989.46
2024-02-01T05:16:32.639Z,989.46
2024-02-01T05:17:32.761Z,989.48
2024-02-01T05:18:32.796Z,989.51
2024-02-01T05:19:32.795Z,989.52
2024-02-01T05:20:32.812Z,989.5
2024-02-01T05:21:32.651Z,989.57
2024-02-01T05:22:32.641Z,989.52
2024-02-01T05:23:32.743Z,989.47
2024-02-01T05:24:32.667Z,989.45
2024-02-01T05:25:32.633Z,989.42
2024-02-01T05:26:32.710Z,989.43
2024-02-01T05:27:32.667Z,989.44
2024-02-01T05:28:32.649Z,989.4
2024-02-01T05:29:32.733Z,989.43
2024-02-01T05:30:32.706Z,989.44
2024-02-01T05:31:32.657Z,989.38
2024-02-01T05:32:32.687Z,989.46
2024-02-01T05:33:32.764Z,989.49
2024-02-01T05:34:32.727Z,989.49
2024-02-01T05:35:32.675Z,989.51
2024-02-01T05:36:32.663Z,989.53
2024-02-01T05:37:32.658Z,989.55
2024-02-01T05:38:32.612Z,989.5
2024-02-01T05:39:32.679Z,989.48
2024-02-01T05:40:32.690Z,989.48
2024-02-01T05:41:32.662Z,989.4
2024-02-01T05:42:32.673Z,989.41
2024-02-01T05:43:32.644Z,989.37
2024-02-01T05:44:32.698Z,989.42
2024-02-01T05:45:32.731Z,989.36
2024-02-01T05:46:32.606Z,989.38
2024-02-01T05:47:32.657Z,989.29
2024-02-01T05:48:32.795Z,989.28
2024-02-01T05:49:32.839Z,989.33
2024-02-01T05:50:32.659Z,989.36
2024-02-01T05:51:32.695Z,989.34
2024-02-01T05:52:32.641Z,989.33
2024-02-01T05:53:32.679Z,989.29
2024-02-01T05:54:32.648Z,989.23
2024-02-01T05:55:32.671Z,989.17
2024-02-01T05:56:32.636Z,989.21
2024-02-01T05:57:32.638Z,989.26
2024-02-01T05:58:32.661Z,989.22
2024-02-01T05:59:32.663Z,989.24
2024-02-01T06:00:32.795Z,989.26
2024-02-01T06:01:32.664Z,989.26
2024-02-01T06:02:32.642Z,989.28
2024-02-01T06:03:32.710Z,989.3
2024-02-01T06:04:32.683Z,989.27
2024-02-01T06:05:32.629Z,989.3
2024-02-01T06:06:32.846Z,989.27
2024-02-01T06:07:32.693Z,989.2
2024-02-01T06:08:32.638Z,989.16
2024-02-01T06:09:32.639Z,989.19
2024-02-01T06:10:32.667Z,989.23
2024-02-01T06:11:32.658Z,989.22
2024-02-01T06:12:35.755Z,989.23
2024-02-01T06:13:32.634Z,989.31
2024-02-01T06:14:32.659Z,989.33
2024-02-01T06:15:32.650Z,989.29
2024-02-01T06:16:32.639Z,989.31
2024-02-01T06:17:32.678Z,989.31
2024-02-01T06:18:32.747Z,989.32
2024-02-01T06:19:32.719Z,989.31
2024-02-01T06:20:32.640Z,989.23
2024-02-01T06:21:32.651Z,989.12
2024-02-01T06:22:32.679Z,989.06
2024-02-01T06:23:32.654Z,989.07
2024-02-01T06:24:32.648Z,989.02
2024-02-01T06:25:32.689Z,988.99
2024-02-01T06:26:32.635Z,989.03
2024-02-01T06:27:32.644Z,989.05
2024-02-01T06:28:32.631Z,989.08
2024-02-01T06:29:32.651Z,989.07
2024-02-01T06:30:32.691Z,989.08
2024-02-01T06:31:32.651Z,989.04
2024-02-01T06:32:32.639Z,988.93
2024-02-01T06:33:32.750Z,988.95
2024-02-01T06:34:32.667Z,988.99
2024-02-01T06:35:32.651Z,989.06
2024-02-01T06:36:32.708Z,989.04
2024-02-01T06:37:32.684Z,989.04
2024-02-01T06:38:32.636Z,988.97
2024-02-01T06:39:32.688Z,988.96
2024-02-01T06:40:32.673Z,989.03
2024-02-01T06:41:32.657Z,989.04
2024-02-01T06:42:32.712Z,989.04
2024-02-01T06:43:32.648Z,989.04
2024-02-01T06:44:32.697Z,989.03
2024-02-01T06:45:32.729Z,989.04
2024-02-01T06:46:32.725Z,989.06
2024-02-01T06:47:32.693Z,989.06
2024-02-01T06:48:32.709Z,989.06
2024-02-01T06:49:35.830Z,989.09
2024-02-01T06:50:32.700Z,989.1
2024-02-01T06:51:32.689Z,989.14
2024-02-01T06:52:32.666Z,989.1
2024-02-01T06:53:32.659Z,989.09
2024-02-01T06:54:32.748Z,989.13
2024-02-01T06:55:32.663Z,989.05
2024-02-01T06:56:32.660Z,989.09
2024-02-01T06:57:32.694Z,989.09
2024-02-01T06:58:32.741Z,989.12
2024-02-01T06:59:33.693Z,989.18
2024-02-01T07:00:32.707Z,989.17
2024-02-01T07:01:32.786Z,989.22
2024-02-01T07:02:32.658Z,989.16
2024-02-01T07:03:32.792Z,989.15
2024-02-01T07:04:32.791Z,989.15
2024-02-01T07:05:32.740Z,989.21
2024-02-01T07:06:32.711Z,989.25
2024-02-01T07:07:32.671Z,989.22
2024-02-01T07:08:32.677Z,989.23
2024-02-01T07:09:32.697Z,989.23
2024-02-01T07:10:32.676Z,989.23
2024-02-01T07:11:32.647Z,989.28
2024-02-01T07:12:32.709Z,989.3
2024-02-01T07:13:32.640Z,989.27
2024-02-01T07:14:32.660Z,989.25
2024-02-01T07:15:33.680Z,989.17
2024-02-01T07:16:32.644Z,989.16
2024-02-01T07:17:32.722Z,989.17
2024-02-01T07:18:32.897Z,989.16
2024-02-01T07:19:32.745Z,989.18
2024-02-01T07:20:32.673Z,989.16
2024-02-01T07:21:32.791Z,989.14
2024-02-01T07:22:32.638Z,989.17
2024-02-01T07:23:32.656Z,989.16
2024-02-01T07:24:32.756Z,989.14
2024-02-01T07:25:32.639Z,989.16
2024-02-01T07:26:32.645Z,989.14
2024-02-01T07:27:32.740Z,989.12
2024-02-01T07:28:32.631Z,989.15
2024-02-01T07:29:32.632Z,989.16
2024-02-01T07:30:32.660Z,989.11
2024-02-01T07:31:32.640Z,989.06
2024-02-01T07:32:32.709Z,989.03
2024-02-01T07:33:32.706Z,988.97
2024-02-01T07:34:32.664Z,989
2024-02-01T07:35:32.642Z,988.99
2024-02-01T07:36:32.640Z,989.01
2024-02-01T07:37:32.658Z,989.01
2024-02-01T07:38:32.656Z,989.04
2024-02-01T07:39:32.627Z,988.97
2024-02-01T07:40:32.935Z,988.96
2024-02-01T07:41:32.663Z,988.92
2024-02-01T07:42:32.638Z,988.89
2024-02-01T07:43:32.652Z,988.89
2024-02-01T07:44:32.653Z,988.93
2024-02-01T07:45:32.640Z,988.92
2024-02-01T07:46:32.958Z,988.93
2024-02-01T07:47:32.733Z,988.93
2024-02-01T07:48:32.757Z,988.92
2024-02-01T07:49:32.742Z,988.91
2024-02-01T07:50:32.644Z,988.88
2024-02-01T07:51:32.654Z,988.93
2024-02-01T07:52:32.653Z,988.94
2024-02-01T07:53:32.656Z,988.93
2024-02-01T07:54:32.614Z,988.91
2024-02-01T07:55:32.649Z,988.91
2024-02-01T07:56:32.657Z,988.87
2024-02-01T07:57:32.628Z,988.86
2024-02-01T07:58:32.655Z,988.84
2024-02-01T07:59:32.654Z,988.84
2024-02-01T08:00:32.679Z,988.84
2024-02-01T08:01:32.657Z,988.83
2024-02-01T08:02:32.663Z,988.85
2024-02-01T08:03:32.763Z,988.84
2024-02-01T08:04:32.704Z,988.86
2024-02-01T08:05:32.678Z,988.84
2024-02-01T08:06:32.832Z,988.84
2024-02-01T08:07:32.657Z,988.79
2024-02-01T08:08:32.634Z,988.8
2024-02-01T08:09:32.648Z,988.82
2024-02-01T08:10:32.635Z,988.86
2024-02-01T08:11:32.614Z,988.85
2024-02-01T08:12:32.654Z,988.84
2024-02-01T08:13:32.660Z,988.83
2024-02-01T08:14:32.660Z,988.76
2024-02-01T08:15:32.653Z,988.75
2024-02-01T08:16:32.661Z,988.75
2024-02-01T08:17:32.796Z,988.74
2024-02-01T08:18:32.762Z,988.78
2024-02-01T08:19:40.050Z,988.77
2024-02-01T08:20:32.622Z,988.83
2024-02-01T08:21:32.656Z,988.81
2024-02-01T08:22:32.662Z,988.79
2024-02-01T08:23:32.625Z,988.83
2024-02-01T08:24:32.659Z,988.78
2024-02-01T08:25:32.654Z,988.76
2024-02-01T08:26:32.711Z,988.76
2024-02-01T08:27:32.621Z,988.74
2024-02-01T08:28:32.621Z,988.7
2024-02-01T08:29:32.634Z,988.74
2024-02-01T08:30:32.692Z,988.75
2024-02-01T08:31:32.628Z,988.74
2024-02-01T08:32:32.699Z,988.77
2024-02-01T08:33:32.712Z,988.77
2024-02-01T08:34:32.708Z,988.79
2024-02-01T08:35:32.610Z,988.79
2024-02-01T08:36:32.684Z,988.84
2024-02-01T08:37:32.640Z,988.88
2024-02-01T08:38:32.652Z,988.87
2024-02-01T08:39:32.654Z,988.91
2024-02-01T08:40:32.667Z,988.91
2024-02-01T08:41:32.661Z,989
2024-02-01T08:42:34.489Z,988.97
2024-02-01T08:43:32.627Z,989
2024-02-01T08:44:32.654Z,988.98
2024-02-01T08:45:32.664Z,988.99
2024-02-01T08:46:32.606Z,989
2024-02-01T08:47:32.633Z,988.96
2024-02-01T08:48:32.720Z,988.94
2024-02-01T08:49:32.760Z,988.97
2024-02-01T08:50:32.663Z,988.92
2024-02-01T08:51:32.679Z,988.97
2024-02-01T08:52:32.651Z,988.99
2024-02-01T08:53:32.631Z,988.98
2024-02-01T08:54:32.914Z,989
2024-02-01T08:55:32.680Z,988.97
2024-02-01T08:56:32.656Z,988.96
2024-02-01T08:57:32.644Z,988.94
2024-02-01T08:58:32.665Z,988.95
2024-02-01T08:59:32.638Z,988.95
2024-02-01T09:00:32.656Z,989
2024-02-01T09:01:34.976Z,989.04
2024-02-01T09:02:32.648Z,989.04
2024-02-01T09:03:32.656Z,989.05
2024-02-01T09:04:32.684Z,989
2024-02-01T09:05:32.764Z,988.99
2024-02-01T09:06:32.768Z,988.99
2024-02-01T09:07:33.065Z,989
2024-02-01T09:08:32.614Z,989.01
2024-02-01T09:09:32.650Z,988.99
2024-02-01T09:10:32.641Z,989.05
2024-02-01T09:11:32.650Z,989.07
2024-02-01T09:12:32.597Z,989.12
2024-02-01T09:13:32.651Z,989.13
2024-02-01T09:14:32.663Z,989.11
2024-02-01T09:15:32.875Z,989.09
2024-02-01T09:16:32.984Z,989.11
2024-02-01T09:17:32.654Z,989.1
2024-02-01T09:18:32.769Z,989.12
2024-02-01T09:19:32.732Z,989.14
2024-02-01T09:20:32.599Z,989.19
2024-02-01T09:21:32.699Z,989.17
2024-02-01T09:22:32.626Z,989.12
2024-02-01T09:23:32.662Z,989.13
2024-02-01T09:24:32.646Z,989.16
2024-02-01T09:25:32.625Z,989.18
2024-02-01T09:26:32.624Z,989.12
2024-02-01T09:27:32.756Z,989.12
2024-02-01T09:28:32.661Z,989.14
2024-02-01T09:29:32.665Z,989.15
2024-02-01T09:30:32.810Z,989.16
2024-02-01T09:31:32.626Z,989.16
2024-02-01T09:32:32.664Z,989.24
2024-02-01T09:33:32.820Z,989.24
2024-02-01T09:34:32.734Z,989.2
2024-02-01T09:35:32.645Z,989.24
2024-02-01T09:36:32.642Z,989.27
2024-02-01T09:37:32.665Z,989.27
2024-02-01T09:38:32.661Z,989.27
2024-02-01T09:39:32.643Z,989.34
2024-02-01T09:40:32.638Z,989.32
2024-02-01T09:41:32.678Z,989.32
2024-02-01T09:42:32.642Z,989.3
2024-02-01T09:43:32.665Z,989.27
2024-02-01T09:44:32.657Z,989.21
2024-02-01T09:45:32.639Z,989.19
2024-02-01T09:46:32.645Z,989.2
2024-02-01T09:47:32.683Z,989.2
2024-02-01T09:48:32.767Z,989.15
2024-02-01T09:49:33.342Z,989.13
2024-02-01T09:50:32.655Z,989.17
2024-02-01T09:51:32.651Z,989.16
2024-02-01T09:52:32.638Z,989.2
2024-02-01T09:53:32.663Z,989.18
2024-02-01T09:54:32.681Z,989.23
2024-02-01T09:55:32.633Z,989.23
2024-02-01T09:56:32.665Z,989.25
2024-02-01T09:57:32.635Z,989.16
2024-02-01T09:58:32.655Z,989.09
2024-02-01T09:59:32.655Z,989.05
2024-02-01T10:00:32.636Z,989.02
2024-02-01T10:01:32.705Z,988.98
2024-02-01T10:02:32.655Z,989
2024-02-01T10:03:32.748Z,988.97
2024-02-01T10:04:32.664Z,988.92
2024-02-01T10:05:32.658Z,988.87
2024-02-01T10:06:32.766Z,988.85
2024-02-01T10:07:32.644Z,988.87
2024-02-01T10:08:32.657Z,988.81
2024-02-01T10:09:32.614Z,988.77
2024-02-01T10:10:32.660Z,988.8
2024-02-01T10:11:32.679Z,988.8
2024-02-01T10:12:32.621Z,988.82
2024-02-01T10:13:33.185Z,988.84
2024-02-01T10:14:32.644Z,988.83
2024-02-01T10:15:32.797Z,988.83
2024-02-01T10:16:32.652Z,988.83
2024-02-01T10:17:32.667Z,988.78
2024-02-01T10:18:32.768Z,988.74
2024-02-01T10:19:32.759Z,988.71
2024-02-01T10:20:32.614Z,988.7
2024-02-01T10:21:39.798Z,988.7
2024-02-01T10:22:32.636Z,988.69
2024-02-01T10:23:32.662Z,988.65
2024-02-01T10:24:32.675Z,988.63
2024-02-01T10:25:32.634Z,988.64
2024-02-01T10:26:32.656Z,988.63
2024-02-01T10:27:32.717Z,988.67
2024-02-01T10:28:32.640Z,988.67
2024-02-01T10:29:32.598Z,988.7
2024-02-01T10:30:32.625Z,988.67
2024-02-01T10:31:33.044Z,988.69
2024-02-01T10:32:32.704Z,988.7
2024-02-01T10:33:32.929Z,988.68
2024-02-01T10:34:32.761Z,988.64
2024-02-01T10:35:32.655Z,988.55
2024-02-01T10:36:32.663Z,988.49
2024-02-01T10:37:32.648Z,988.49
2024-02-01T10:38:32.647Z,988.5
2024-02-01T10:39:32.642Z,988.53
2024-02-01T10:40:32.673Z,988.55
2024-02-01T10:41:32.678Z,988.51
2024-02-01T10:42:32.620Z,988.49
2024-02-01T10:43:32.633Z,988.44
2024-02-01T10:44:32.652Z,988.46
2024-02-01T10:45:32.672Z,988.47
2024-02-01T10:46:32.650Z,988.45
2024-02-01T10:47:32.646Z,988.53
2024-02-01T10:48:32.763Z,988.51
2024-02-01T10:49:32.694Z,988.48
2024-02-01T10:50:32.661Z,988.44
2024-02-01T10:51:32.664Z,988.43
2024-02-01T10:52:32.641Z,988.42
2024-02-01T10:53:32.666Z,988.42
2024-02-01T10:54:32.732Z,988.34
2024-02-01T10:55:32.650Z,988.35
2024-02-01T10:56:32.645Z,988.33
2024-02-01T10:57:32.618Z,988.36
2024-02-01T10:58:32.623Z,988.38
2024-02-01T10:59:32.657Z,988.39
2024-02-01T11:00:32.655Z,988.4
2024-02-01T11:01:32.660Z,988.4
2024-02-01T11:02:32.657Z,988.41
2024-02-01T11:03:34.503Z,988.39
2024-02-01T11:04:32.651Z,988.39
2024-02-01T11:05:32.656Z,988.4
2024-02-01T11:06:32.735Z,988.42
2024-02-01T11:07:32.638Z,988.44
2024-02-01T11:08:32.643Z,988.39
2024-02-01T11:09:35.215Z,988.32
2024-02-01T11:10:32.656Z,988.32
2024-02-01T11:11:32.673Z,988.36
2024-02-01T11:12:32.665Z,988.32
2024-02-01T11:13:32.636Z,988.33
2024-02-01T11:14:32.687Z,988.31
2024-02-01T11:15:32.735Z,988.31
2024-02-01T11:16:32.616Z,988.28
2024-02-01T11:17:32.729Z,988.28
2024-02-01T11:18:32.762Z,988.28
2024-02-01T11:19:36.708Z,988.26
2024-02-01T11:20:32.740Z,988.22
2024-02-01T11:21:32.644Z,988.24
2024-02-01T11:22:32.654Z,988.28
2024-02-01T11:23:32.648Z,988.29
2024-02-01T11:24:32.651Z,988.26
2024-02-01T11:25:32.649Z,988.3
2024-02-01T11:26:32.630Z,988.3
2024-02-01T11:27:32.667Z,988.32
2024-02-01T11:28:32.672Z,988.35
2024-02-01T11:29:32.654Z,988.33
2024-02-01T11:30:32.727Z,988.36
2024-02-01T11:31:42.094Z,988.34
2024-02-01T11:32:32.675Z,988.35
2024-02-01T11:33:32.734Z,988.31
2024-02-01T11:34:32.737Z,988.31
2024-02-01T11:35:32.642Z,988.33
2024-02-01T11:36:32.657Z,988.35
2024-02-01T11:37:32.675Z,988.39
2024-02-01T11:38:32.688Z,988.4
2024-02-01T11:39:32.635Z,988.39
2024-02-01T11:40:32.612Z,988.31
2024-02-01T11:41:32.636Z,988.21
2024-02-01T11:42:33.866Z,988.21
2024-02-01T11:43:32.636Z,988.29
2024-02-01T11:44:32.654Z,988.28
2024-02-01T11:45:32.675Z,988.33
2024-02-01T11:46:32.638Z,988.39
2024-02-01T11:47:32.654Z,988.46
2024-02-01T11:48:32.783Z,988.43
2024-02-01T11:49:32.974Z,988.39
2024-02-01T11:50:32.656Z,988.32
2024-02-01T11:51:32.654Z,988.31
2024-02-01T11:52:32.645Z,988.29
2024-02-01T11:53:32.632Z,988.28
2024-02-01T11:54:32.633Z,988.3
2024-02-01T11:55:32.639Z,988.26
2024-02-01T11:56:32.649Z,988.28
2024-02-01T11:57:32.657Z,988.26
2024-02-01T11:58:32.980Z,988.3
2024-02-01T11:59:32.628Z,988.31
2024-02-01T12:00:44.445Z,988.32
2024-02-01T12:01:32.820Z,988.27
2024-02-01T12:02:32.679Z,988.26
2024-02-01T12:03:32.683Z,988.22
2024-02-01T12:04:32.703Z,988.27
2024-02-01T12:05:32.676Z,988.25
2024-02-01T12:06:32.657Z,988.26
2024-02-01T12:07:32.652Z,988.21
2024-02-01T12:08:35.263Z,988.16
2024-02-01T12:09:32.631Z,988.12
2024-02-01T12:10:32.638Z,988.08
2024-02-01T12:11:32.664Z,988.08
2024-02-01T12:12:32.620Z,988.16
2024-02-01T12:13:32.667Z,988.18
2024-02-01T12:14:34.583Z,988.18
2024-02-01T12:15:32.688Z,988.23
2024-02-01T12:16:32.696Z,988.23
2024-02-01T12:17:32.725Z,988.25
2024-02-01T12:18:32.836Z,988.21
2024-02-01T12:19:32.704Z,988.2
2024-02-01T12:20:32.647Z,988.15
2024-02-01T12:21:32.649Z,988.09
2024-02-01T12:22:32.651Z,988.07
2024-02-01T12:23:32.630Z,988.04
2024-02-01T12:24:32.643Z,988
2024-02-01T12:25:32.666Z,987.99
2024-02-01T12:26:32.630Z,987.94
2024-02-01T12:27:32.640Z,988.07
2024-02-01T12:28:32.654Z,988.09
2024-02-01T12:29:32.637Z,988.16
2024-02-01T12:30:32.695Z,988.22
2024-02-01T12:31:32.628Z,988.15
2024-02-01T12:32:35.425Z,988.27